Mahanoy Plane, Pennsylvania
Current Conditions -  °F | °C
As of 9:15 PM on Friday 19 Dec 2014 (Local Time) from KHZL Reporting Station
Overcast Overcast  
Wind Chill: 20°   Ceiling: 1800
Heat Index: 28°   Visibility: 10mi
Dew Point: 21°   Wind: 9mph
Humidity: 74%   Direction: 310°NW
Pressure: 30.15"   Gusts: NA
Location:  40.79°N, 76.24°W
Report Text: KHZL 200215Z AUTO 31008KT 10SM OVC018 M02/M06 A3015 RMK AO2
Loading
Personal Weather Stations






























Interactive Weather Map New forecast layout! Learn more

10-Day Weather Forecast

Advertisements
Track Severe Weather on mobile